Terminal Aerodrome Forecast
Issued by NWS

Home | Current Version | Previous Version | Text Only | Print | Product List | Glossary On
Versions: 1 2 3 4 5 6 7 8 9 10 11 12 13 14 15 16 17 18 19 20 21 22 23 24 25
000
FTUS43 KEAX 230500
TAFSTJ
TAF
KSTJ 230532Z 2306/2406 18012KT P6SM OVC015
     FM231000 17010KT 5SM BR VCSH OVC010
     FM232000 31010KT 4SM BR VCSH OVC008
     FM240000 33015G25KT 3SM -SHRA OVC008=

USA.gov is the U.S. government's official web portal to all federal, state and local government web resources and services.